sensor_id;sensor_type;location;lat;lon;timestamp;temperature;humidity
53643;DHT22;39546;45.534;12.048;2022-09-17T00:03:26;20.90;81.50
53643;DHT22;39546;45.534;12.048;2022-09-17T00:09:29;20.80;81.80
53643;DHT22;39546;45.534;12.048;2022-09-17T00:15:31;20.80;82.10
53643;DHT22;39546;45.534;12.048;2022-09-17T00:21:33;20.40;81.80
53643;DHT22;39546;45.534;12.048;2022-09-17T00:27:35;20.40;82.20
53643;DHT22;39546;45.534;12.048;2022-09-17T00:33:37;20.30;82.10
53643;DHT22;39546;45.534;12.048;2022-09-17T00:39:39;20.40;82.60
53643;DHT22;39546;45.534;12.048;2022-09-17T00:45:41;20.40;82.70
53643;DHT22;39546;45.534;12.048;2022-09-17T00:51:49;20.40;83.20
53643;DHT22;39546;45.534;12.048;2022-09-17T00:57:56;20.20;83.00
53643;DHT22;39546;45.534;12.048;2022-09-17T01:03:59;20.30;82.90
53643;DHT22;39546;45.534;12.048;2022-09-17T01:16:35;20.20;83.20
53643;DHT22;39546;45.534;12.048;2022-09-17T01:41:53;20.10;83.10
53643;DHT22;39546;45.534;12.048;2022-09-17T01:48:03;20.00;82.70
53643;DHT22;39546;45.534;12.048;2022-09-17T02:00:29;19.90;83.00
53643;DHT22;39546;45.534;12.048;2022-09-17T02:06:37;19.90;83.10
53643;DHT22;39546;45.534;12.048;2022-09-17T02:12:48;19.80;83.20
53643;DHT22;39546;45.534;12.048;2022-09-17T02:19:31;19.60;83.20
53643;DHT22;39546;45.534;12.048;2022-09-17T02:25:33;19.40;83.50
53643;DHT22;39546;45.534;12.048;2022-09-17T02:31:37;19.60;83.60
53643;DHT22;39546;45.534;12.048;2022-09-17T02:37:41;19.70;83.30
53643;DHT22;39546;45.534;12.048;2022-09-17T02:44:13;19.70;83.20
53643;DHT22;39546;45.534;12.048;2022-09-17T02:50:45;19.70;83.00
53643;DHT22;39546;45.534;12.048;2022-09-17T02:57:17;19.70;83.00
53643;DHT22;39546;45.534;12.048;2022-09-17T03:03:40;19.70;82.80
53643;DHT22;39546;45.534;12.048;2022-09-17T03:09:43;19.60;82.90
53643;DHT22;39546;45.534;12.048;2022-09-17T03:15:45;19.50;82.70
53643;DHT22;39546;45.534;12.048;2022-09-17T03:21:47;19.20;83.30
53643;DHT22;39546;45.534;12.048;2022-09-17T03:27:49;19.20;83.70
53643;DHT22;39546;45.534;12.048;2022-09-17T03:33:53;19.20;83.80
53643;DHT22;39546;45.534;12.048;2022-09-17T03:39:55;19.10;83.80
53643;DHT22;39546;45.534;12.048;2022-09-17T03:45:57;19.00;83.80
53643;DHT22;39546;45.534;12.048;2022-09-17T03:51:59;19.00;83.80
53643;DHT22;39546;45.534;12.048;2022-09-17T03:58:01;18.90;83.70
53643;DHT22;39546;45.534;12.048;2022-09-17T04:04:03;18.70;83.40
53643;DHT22;39546;45.534;12.048;2022-09-17T04:10:06;18.60;83.40
53643;DHT22;39546;45.534;12.048;2022-09-17T04:16:08;18.50;83.20
53643;DHT22;39546;45.534;12.048;2022-09-17T04:22:10;18.40;83.10
53643;DHT22;39546;45.534;12.048;2022-09-17T04:28:12;18.50;83.30
53643;DHT22;39546;45.534;12.048;2022-09-17T04:34:14;18.50;83.60
53643;DHT22;39546;45.534;12.048;2022-09-17T04:40:29;18.60;84.10
53643;DHT22;39546;45.534;12.048;2022-09-17T04:46:49;18.60;83.90
53643;DHT22;39546;45.534;12.048;2022-09-17T04:52:51;18.60;84.10
53643;DHT22;39546;45.534;12.048;2022-09-17T04:58:53;18.50;84.40
53643;DHT22;39546;45.534;12.048;2022-09-17T05:04:54;18.40;84.60
53643;DHT22;39546;45.534;12.048;2022-09-17T05:11:06;18.40;85.00
53643;DHT22;39546;45.534;12.048;2022-09-17T05:17:08;18.30;84.90
53643;DHT22;39546;45.534;12.048;2022-09-17T05:23:10;18.20;84.80
53643;DHT22;39546;45.534;12.048;2022-09-17T05:29:28;18.30;84.80
53643;DHT22;39546;45.534;12.048;2022-09-17T05:35:30;18.30;84.50
53643;DHT22;39546;45.534;12.048;2022-09-17T05:41:33;18.40;84.50
53643;DHT22;39546;45.534;12.048;2022-09-17T05:48:02;18.50;84.10
53643;DHT22;39546;45.534;12.048;2022-09-17T05:54:04;18.30;84.30
53643;DHT22;39546;45.534;12.048;2022-09-17T06:00:07;18.30;84.30
53643;DHT22;39546;45.534;12.048;2022-09-17T06:06:13;18.30;84.10
53643;DHT22;39546;45.534;12.048;2022-09-17T06:12:16;18.30;84.00
53643;DHT22;39546;45.534;12.048;2022-09-17T06:18:18;18.30;83.90
53643;DHT22;39546;45.534;12.048;2022-09-17T06:24:37;18.50;83.90
53643;DHT22;39546;45.534;12.048;2022-09-17T06:30:40;18.50;84.20
53643;DHT22;39546;45.534;12.048;2022-09-17T06:36:42;18.40;84.30
53643;DHT22;39546;45.534;12.048;2022-09-17T06:42:44;18.30;84.60
53643;DHT22;39546;45.534;12.048;2022-09-17T06:48:46;18.30;84.70
53643;DHT22;39546;45.534;12.048;2022-09-17T06:54:48;18.40;84.40
53643;DHT22;39546;45.534;12.048;2022-09-17T07:00:50;18.40;84.10
53643;DHT22;39546;45.534;12.048;2022-09-17T07:07:01;18.20;84.40
53643;DHT22;39546;45.534;12.048;2022-09-17T07:13:06;18.20;84.70
53643;DHT22;39546;45.534;12.048;2022-09-17T07:19:09;18.00;84.10
53643;DHT22;39546;45.534;12.048;2022-09-17T07:31:37;17.60;84.50
53643;DHT22;39546;45.534;12.048;2022-09-17T07:37:39;17.50;84.70
53643;DHT22;39546;45.534;12.048;2022-09-17T07:43:42;17.50;84.70
53643;DHT22;39546;45.534;12.048;2022-09-17T07:49:44;17.70;84.80
53643;DHT22;39546;45.534;12.048;2022-09-17T07:55:57;17.80;84.80
53643;DHT22;39546;45.534;12.048;2022-09-17T08:02:20;17.70;84.90
53643;DHT22;39546;45.534;12.048;2022-09-17T08:08:22;17.80;84.60
53643;DHT22;39546;45.534;12.048;2022-09-17T08:14:24;17.60;84.60
53643;DHT22;39546;45.534;12.048;2022-09-17T08:20:26;17.40;84.90
53643;DHT22;39546;45.534;12.048;2022-09-17T08:26:29;17.40;85.10
53643;DHT22;39546;45.534;12.048;2022-09-17T08:32:31;17.50;85.10
53643;DHT22;39546;45.534;12.048;2022-09-17T08:38:35;17.40;85.00
53643;DHT22;39546;45.534;12.048;2022-09-17T08:44:42;17.40;84.80
53643;DHT22;39546;45.534;12.048;2022-09-17T08:50:49;17.50;85.00
53643;DHT22;39546;45.534;12.048;2022-09-17T09:09:49;17.50;84.80
53643;DHT22;39546;45.534;12.048;2022-09-17T09:22:47;17.40;84.50
53643;DHT22;39546;45.534;12.048;2022-09-17T09:29:15;17.60;84.50
53643;DHT22;39546;45.534;12.048;2022-09-17T09:35:23;17.70;84.50
53643;DHT22;39546;45.534;12.048;2022-09-17T09:41:46;17.70;84.50
53643;DHT22;39546;45.534;12.048;2022-09-17T10:00:47;17.60;84.40
53643;DHT22;39546;45.534;12.048;2022-09-17T10:06:51;17.50;84.00
53643;DHT22;39546;45.534;12.048;2022-09-17T10:13:11;17.30;83.90
53643;DHT22;39546;45.534;12.048;2022-09-17T10:19:20;17.50;83.90
53643;DHT22;39546;45.534;12.048;2022-09-17T10:25:33;17.50;83.80
53643;DHT22;39546;45.534;12.048;2022-09-17T10:32:21;17.40;83.10
53643;DHT22;39546;45.534;12.048;2022-09-17T10:38:44;17.40;83.60
53643;DHT22;39546;45.534;12.048;2022-09-17T10:45:25;17.40;83.40
53643;DHT22;39546;45.534;12.048;2022-09-17T10:51:28;17.50;83.50
53643;DHT22;39546;45.534;12.048;2022-09-17T11:04:40;17.30;83.30
53643;DHT22;39546;45.534;12.048;2022-09-17T11:11:06;17.50;83.20
53643;DHT22;39546;45.534;12.048;2022-09-17T11:17:27;17.70;83.30
53643;DHT22;39546;45.534;12.048;2022-09-17T11:23:45;17.80;83.30
53643;DHT22;39546;45.534;12.048;2022-09-17T11:36:26;18.00;83.60
53643;DHT22;39546;45.534;12.048;2022-09-17T11:42:36;18.20;83.60
53643;DHT22;39546;45.534;12.048;2022-09-17T11:49:34;18.30;83.40
53643;DHT22;39546;45.534;12.048;2022-09-17T11:55:28;18.30;83.50
53643;DHT22;39546;45.534;12.048;2022-09-17T12:08:18;18.40;84.50
53643;DHT22;39546;45.534;12.048;2022-09-17T12:15:05;18.70;84.00
53643;DHT22;39546;45.534;12.048;2022-09-17T12:21:18;18.80;83.40
53643;DHT22;39546;45.534;12.048;2022-09-17T12:33:54;18.80;82.80
53643;DHT22;39546;45.534;12.048;2022-09-17T12:40:10;18.90;82.30
53643;DHT22;39546;45.534;12.048;2022-09-17T12:59:15;19.00;81.70
53643;DHT22;39546;45.534;12.048;2022-09-17T13:05:58;19.00;80.20
53643;DHT22;39546;45.534;12.048;2022-09-17T13:12:07;19.00;80.40
53643;DHT22;39546;45.534;12.048;2022-09-17T13:18:19;19.00;80.50
53643;DHT22;39546;45.534;12.048;2022-09-17T13:24:24;19.00;80.00
53643;DHT22;39546;45.534;12.048;2022-09-17T13:31:05;19.00;79.20
53643;DHT22;39546;45.534;12.048;2022-09-17T13:37:18;19.00;78.70
53643;DHT22;39546;45.534;12.048;2022-09-17T13:43:22;19.00;77.00
53643;DHT22;39546;45.534;12.048;2022-09-17T13:49:28;19.00;76.90
53643;DHT22;39546;45.534;12.048;2022-09-17T13:55:38;19.10;75.70
53643;DHT22;39546;45.534;12.048;2022-09-17T14:02:26;19.10;74.20
53643;DHT22;39546;45.534;12.048;2022-09-17T14:09:26;19.10;75.10
53643;DHT22;39546;45.534;12.048;2022-09-17T14:15:58;19.40;73.80
53643;DHT22;39546;45.534;12.048;2022-09-17T14:22:24;19.60;74.60
53643;DHT22;39546;45.534;12.048;2022-09-17T14:34:54;19.60;73.10
53643;DHT22;39546;45.534;12.048;2022-09-17T14:47:17;19.80;72.70
53643;DHT22;39546;45.534;12.048;2022-09-17T14:53:21;19.80;73.00
53643;DHT22;39546;45.534;12.048;2022-09-17T15:05:47;20.20;71.40
53643;DHT22;39546;45.534;12.048;2022-09-17T15:11:57;20.20;71.70
53643;DHT22;39546;45.534;12.048;2022-09-17T15:18:06;20.30;71.40
53643;DHT22;39546;45.534;12.048;2022-09-17T15:30:24;21.00;70.70
53643;DHT22;39546;45.534;12.048;2022-09-17T15:36:27;21.40;70.30
53643;DHT22;39546;45.534;12.048;2022-09-17T15:42:30;21.60;69.00
53643;DHT22;39546;45.534;12.048;2022-09-17T15:48:36;21.90;69.00
53643;DHT22;39546;45.534;12.048;2022-09-17T15:54:39;21.90;68.00
53643;DHT22;39546;45.534;12.048;2022-09-17T16:00:40;21.30;68.60
53643;DHT22;39546;45.534;12.048;2022-09-17T16:06:52;20.90;69.20
53643;DHT22;39546;45.534;12.048;2022-09-17T16:12:55;20.70;68.50
53643;DHT22;39546;45.534;12.048;2022-09-17T16:18:57;20.80;68.30
53643;DHT22;39546;45.534;12.048;2022-09-17T16:24:59;20.60;69.30
53643;DHT22;39546;45.534;12.048;2022-09-17T16:31:01;20.40;69.00
53643;DHT22;39546;45.534;12.048;2022-09-17T16:37:03;20.00;69.50
53643;DHT22;39546;45.534;12.048;2022-09-17T16:43:05;19.80;70.40
53643;DHT22;39546;45.534;12.048;2022-09-17T16:49:09;19.80;70.20
53643;DHT22;39546;45.534;12.048;2022-09-17T16:55:13;19.60;70.30
53643;DHT22;39546;45.534;12.048;2022-09-17T17:01:16;19.40;70.00
53643;DHT22;39546;45.534;12.048;2022-09-17T17:07:34;19.30;70.30
53643;DHT22;39546;45.534;12.048;2022-09-17T17:14:18;19.10;70.50
53643;DHT22;39546;45.534;12.048;2022-09-17T17:20:20;18.90;70.90
53643;DHT22;39546;45.534;12.048;2022-09-17T17:26:22;18.80;71.80
53643;DHT22;39546;45.534;12.048;2022-09-17T17:32:24;18.80;71.80
53643;DHT22;39546;45.534;12.048;2022-09-17T17:38:27;18.70;72.00
53643;DHT22;39546;45.534;12.048;2022-09-17T17:44:29;18.60;72.60
53643;DHT22;39546;45.534;12.048;2022-09-17T17:50:32;18.50;72.60
53643;DHT22;39546;45.534;12.048;2022-09-17T17:56:34;18.30;72.80
53643;DHT22;39546;45.534;12.048;2022-09-17T18:02:39;18.40;73.30
53643;DHT22;39546;45.534;12.048;2022-09-17T18:08:42;18.40;73.70
53643;DHT22;39546;45.534;12.048;2022-09-17T18:14:45;18.50;74.50
53643;DHT22;39546;45.534;12.048;2022-09-17T18:20:46;18.50;74.90
53643;DHT22;39546;45.534;12.048;2022-09-17T18:26:49;18.60;75.50
53643;DHT22;39546;45.534;12.048;2022-09-17T18:32:51;18.60;75.70
53643;DHT22;39546;45.534;12.048;2022-09-17T18:38:58;18.50;75.90
53643;DHT22;39546;45.534;12.048;2022-09-17T18:45:02;18.40;76.20
53643;DHT22;39546;45.534;12.048;2022-09-17T18:51:19;18.30;76.30
53643;DHT22;39546;45.534;12.048;2022-09-17T18:57:22;18.30;76.70
53643;DHT22;39546;45.534;12.048;2022-09-17T19:03:24;18.20;76.60
53643;DHT22;39546;45.534;12.048;2022-09-17T19:09:43;18.00;76.70
53643;DHT22;39546;45.534;12.048;2022-09-17T19:16:09;18.10;77.00
53643;DHT22;39546;45.534;12.048;2022-09-17T19:22:11;18.10;77.10
53643;DHT22;39546;45.534;12.048;2022-09-17T19:28:14;18.10;77.20
53643;DHT22;39546;45.534;12.048;2022-09-17T19:34:19;18.10;77.40
53643;DHT22;39546;45.534;12.048;2022-09-17T19:40:21;18.10;77.50
53643;DHT22;39546;45.534;12.048;2022-09-17T19:46:25;18.00;77.60
53643;DHT22;39546;45.534;12.048;2022-09-17T19:52:27;18.00;77.60
53643;DHT22;39546;45.534;12.048;2022-09-17T19:58:29;17.90;77.90
53643;DHT22;39546;45.534;12.048;2022-09-17T20:04:31;18.00;78.40
53643;DHT22;39546;45.534;12.048;2022-09-17T20:10:34;17.90;78.80
53643;DHT22;39546;45.534;12.048;2022-09-17T20:16:38;17.90;78.50
53643;DHT22;39546;45.534;12.048;2022-09-17T20:22:40;17.80;78.80
53643;DHT22;39546;45.534;12.048;2022-09-17T20:28:43;17.80;79.10
53643;DHT22;39546;45.534;12.048;2022-09-17T20:34:45;17.70;79.10
53643;DHT22;39546;45.534;12.048;2022-09-17T20:40:47;17.70;79.10
53643;DHT22;39546;45.534;12.048;2022-09-17T20:46:51;17.70;79.00
53643;DHT22;39546;45.534;12.048;2022-09-17T20:52:53;17.50;78.60
53643;DHT22;39546;45.534;12.048;2022-09-17T20:58:58;17.30;77.60
53643;DHT22;39546;45.534;12.048;2022-09-17T21:05:07;17.00;77.20
53643;DHT22;39546;45.534;12.048;2022-09-17T21:11:10;16.90;77.30
53643;DHT22;39546;45.534;12.048;2022-09-17T21:17:20;16.80;76.40
53643;DHT22;39546;45.534;12.048;2022-09-17T21:23:24;16.80;76.30
53643;DHT22;39546;45.534;12.048;2022-09-17T21:29:28;16.70;77.00
53643;DHT22;39546;45.534;12.048;2022-09-17T21:35:31;16.70;78.20
53643;DHT22;39546;45.534;12.048;2022-09-17T21:41:33;16.80;78.50
53643;DHT22;39546;45.534;12.048;2022-09-17T21:47:35;16.80;79.10
53643;DHT22;39546;45.534;12.048;2022-09-17T21:53:37;17.00;79.10
53643;DHT22;39546;45.534;12.048;2022-09-17T21:59:39;16.80;78.80
53643;DHT22;39546;45.534;12.048;2022-09-17T22:05:41;16.70;79.30
53643;DHT22;39546;45.534;12.048;2022-09-17T22:11:42;16.70;79.70
53643;DHT22;39546;45.534;12.048;2022-09-17T22:17:48;16.80;79.90
53643;DHT22;39546;45.534;12.048;2022-09-17T22:23:52;16.80;79.90
53643;DHT22;39546;45.534;12.048;2022-09-17T22:29:55;16.80;80.10
53643;DHT22;39546;45.534;12.048;2022-09-17T22:36:05;16.70;80.00
53643;DHT22;39546;45.534;12.048;2022-09-17T22:42:07;16.70;80.20
53643;DHT22;39546;45.534;12.048;2022-09-17T22:48:09;16.70;80.40
53643;DHT22;39546;45.534;12.048;2022-09-17T22:54:17;16.70;80.30
53643;DHT22;39546;45.534;12.048;2022-09-17T23:00:19;16.70;80.10
53643;DHT22;39546;45.534;12.048;2022-09-17T23:06:24;16.70;80.20
53643;DHT22;39546;45.534;12.048;2022-09-17T23:12:26;16.70;80.50
53643;DHT22;39546;45.534;12.048;2022-09-17T23:18:29;16.70;80.90
53643;DHT22;39546;45.534;12.048;2022-09-17T23:24:31;16.60;80.60
53643;DHT22;39546;45.534;12.048;2022-09-17T23:30:55;16.40;80.70
53643;DHT22;39546;45.534;12.048;2022-09-17T23:37:08;16.40;81.20
53643;DHT22;39546;45.534;12.048;2022-09-17T23:43:10;16.40;80.90
53643;DHT22;39546;45.534;12.048;2022-09-17T23:49:13;16.30;80.70
53643;DHT22;39546;45.534;12.048;2022-09-17T23:55:15;16.30;81.00
